sensor_id;sensor_type;location;lat;lon;timestamp;P1;durP1;ratioP1;P2;durP2;ratioP2
23750;SDS011;12055;52.098;13.176;2022-07-29T00:02:24;2.75;;;1.80;;
23750;SDS011;12055;52.098;13.176;2022-07-29T00:04:49;3.20;;;1.60;;
23750;SDS011;12055;52.098;13.176;2022-07-29T00:07:15;5.65;;;1.58;;
23750;SDS011;12055;52.098;13.176;2022-07-29T00:09:40;1.65;;;1.55;;
23750;SDS011;12055;52.098;13.176;2022-07-29T00:12:06;4.53;;;1.73;;
23750;SDS011;12055;52.098;13.176;2022-07-29T00:14:31;3.75;;;1.40;;
23750;SDS011;12055;52.098;13.176;2022-07-29T00:16:57;2.50;;;1.75;;
23750;SDS011;12055;52.098;13.176;2022-07-29T00:19:22;1.75;;;1.50;;
23750;SDS011;12055;52.098;13.176;2022-07-29T00:21:48;3.55;;;1.50;;
23750;SDS011;12055;52.098;13.176;2022-07-29T00:24:13;2.55;;;1.63;;
23750;SDS011;12055;52.098;13.176;2022-07-29T00:26:39;2.70;;;1.45;;
23750;SDS011;12055;52.098;13.176;2022-07-29T00:29:04;2.85;;;1.75;;
23750;SDS011;12055;52.098;13.176;2022-07-29T00:31:30;4.13;;;1.85;;
23750;SDS011;12055;52.098;13.176;2022-07-29T00:33:56;3.45;;;1.17;;
23750;SDS011;12055;52.098;13.176;2022-07-29T00:36:21;4.07;;;1.95;;
23750;SDS011;12055;52.098;13.176;2022-07-29T00:38:48;4.40;;;1.90;;
23750;SDS011;12055;52.098;13.176;2022-07-29T00:41:14;5.80;;;2.25;;
23750;SDS011;12055;52.098;13.176;2022-07-29T00:43:40;4.90;;;1.67;;
23750;SDS011;12055;52.098;13.176;2022-07-29T00:46:06;2.88;;;1.77;;
23750;SDS011;12055;52.098;13.176;2022-07-29T00:48:32;2.03;;;1.35;;
23750;SDS011;12055;52.098;13.176;2022-07-29T00:50:58;2.00;;;1.67;;
23750;SDS011;12055;52.098;13.176;2022-07-29T00:53:24;3.05;;;1.67;;
23750;SDS011;12055;52.098;13.176;2022-07-29T00:55:50;3.38;;;1.85;;
23750;SDS011;12055;52.098;13.176;2022-07-29T00:58:16;3.10;;;1.95;;
23750;SDS011;12055;52.098;13.176;2022-07-29T01:00:41;1.75;;;1.58;;
23750;SDS011;12055;52.098;13.176;2022-07-29T01:03:07;2.80;;;1.95;;
23750;SDS011;12055;52.098;13.176;2022-07-29T01:05:33;2.33;;;1.70;;
23750;SDS011;12055;52.098;13.176;2022-07-29T01:08:00;2.88;;;1.67;;
23750;SDS011;12055;52.098;13.176;2022-07-29T01:10:26;3.25;;;2.08;;
23750;SDS011;12055;52.098;13.176;2022-07-29T01:12:52;3.88;;;1.80;;
23750;SDS011;12055;52.098;13.176;2022-07-29T01:15:21;5.10;;;1.85;;
23750;SDS011;12055;52.098;13.176;2022-07-29T01:20:48;2.83;;;1.55;;
23750;SDS011;12055;52.098;13.176;2022-07-29T01:23:47;2.78;;;1.63;;
23750;SDS011;12055;52.098;13.176;2022-07-29T01:26:41;4.15;;;2.00;;
23750;SDS011;12055;52.098;13.176;2022-07-29T01:29:32;5.53;;;2.00;;
23750;SDS011;12055;52.098;13.176;2022-07-29T01:32:05;6.40;;;1.85;;
23750;SDS011;12055;52.098;13.176;2022-07-29T01:34:55;3.45;;;2.05;;
23750;SDS011;12055;52.098;13.176;2022-07-29T01:37:28;4.63;;;1.98;;
23750;SDS011;12055;52.098;13.176;2022-07-29T01:40:03;2.13;;;1.70;;
23750;SDS011;12055;52.098;13.176;2022-07-29T01:42:42;4.88;;;2.10;;
23750;SDS011;12055;52.098;13.176;2022-07-29T01:45:16;2.70;;;1.80;;
23750;SDS011;12055;52.098;13.176;2022-07-29T01:48:03;5.45;;;1.80;;
23750;SDS011;12055;52.098;13.176;2022-07-29T01:50:53;4.07;;;1.98;;
23750;SDS011;12055;52.098;13.176;2022-07-29T01:53:29;6.30;;;2.28;;
23750;SDS011;12055;52.098;13.176;2022-07-29T01:56:15;3.70;;;1.70;;
23750;SDS011;12055;52.098;13.176;2022-07-29T01:58:43;2.45;;;1.67;;
23750;SDS011;12055;52.098;13.176;2022-07-29T02:01:10;3.10;;;1.67;;
23750;SDS011;12055;52.098;13.176;2022-07-29T02:03:37;2.67;;;1.83;;
23750;SDS011;12055;52.098;13.176;2022-07-29T02:06:04;2.00;;;1.60;;
23750;SDS011;12055;52.098;13.176;2022-07-29T02:08:32;2.25;;;1.50;;
23750;SDS011;12055;52.098;13.176;2022-07-29T02:10:59;2.53;;;1.92;;
23750;SDS011;12055;52.098;13.176;2022-07-29T02:13:26;5.13;;;1.92;;
23750;SDS011;12055;52.098;13.176;2022-07-29T02:15:53;2.17;;;1.80;;
23750;SDS011;12055;52.098;13.176;2022-07-29T02:18:20;2.50;;;1.52;;
23750;SDS011;12055;52.098;13.176;2022-07-29T02:20:49;3.63;;;1.98;;
23750;SDS011;12055;52.098;13.176;2022-07-29T02:23:20;2.72;;;1.90;;
23750;SDS011;12055;52.098;13.176;2022-07-29T02:25:48;2.55;;;1.95;;
23750;SDS011;12055;52.098;13.176;2022-07-29T02:28:16;2.30;;;1.92;;
23750;SDS011;12055;52.098;13.176;2022-07-29T02:30:44;8.07;;;2.60;;
23750;SDS011;12055;52.098;13.176;2022-07-29T02:33:12;4.70;;;2.40;;
23750;SDS011;12055;52.098;13.176;2022-07-29T02:35:39;3.58;;;2.13;;
23750;SDS011;12055;52.098;13.176;2022-07-29T02:38:07;2.60;;;2.33;;
23750;SDS011;12055;52.098;13.176;2022-07-29T02:40:52;2.95;;;1.85;;
23750;SDS011;12055;52.098;13.176;2022-07-29T02:43:19;3.30;;;1.98;;
23750;SDS011;12055;52.098;13.176;2022-07-29T02:45:47;4.78;;;2.20;;
23750;SDS011;12055;52.098;13.176;2022-07-29T02:48:18;7.25;;;2.20;;
23750;SDS011;12055;52.098;13.176;2022-07-29T02:50:55;2.88;;;2.20;;
23750;SDS011;12055;52.098;13.176;2022-07-29T02:53:29;2.22;;;1.80;;
23750;SDS011;12055;52.098;13.176;2022-07-29T02:55:59;3.00;;;2.25;;
23750;SDS011;12055;52.098;13.176;2022-07-29T03:01:03;5.35;;;2.00;;
23750;SDS011;12055;52.098;13.176;2022-07-29T03:03:34;2.35;;;1.77;;
23750;SDS011;12055;52.098;13.176;2022-07-29T03:06:01;3.05;;;2.00;;
23750;SDS011;12055;52.098;13.176;2022-07-29T03:08:27;3.38;;;1.73;;
23750;SDS011;12055;52.098;13.176;2022-07-29T03:10:54;6.45;;;2.13;;
23750;SDS011;12055;52.098;13.176;2022-07-29T03:13:20;4.00;;;1.95;;
23750;SDS011;12055;52.098;13.176;2022-07-29T03:15:46;4.05;;;1.70;;
23750;SDS011;12055;52.098;13.176;2022-07-29T03:18:12;4.68;;;1.77;;
23750;SDS011;12055;52.098;13.176;2022-07-29T03:20:39;1.92;;;1.75;;
23750;SDS011;12055;52.098;13.176;2022-07-29T03:23:05;5.18;;;2.45;;
23750;SDS011;12055;52.098;13.176;2022-07-29T03:25:32;2.33;;;1.90;;
23750;SDS011;12055;52.098;13.176;2022-07-29T03:27:58;4.57;;;1.90;;
23750;SDS011;12055;52.098;13.176;2022-07-29T03:30:24;7.05;;;2.17;;
23750;SDS011;12055;52.098;13.176;2022-07-29T03:32:50;5.28;;;2.03;;
23750;SDS011;12055;52.098;13.176;2022-07-29T03:35:16;5.00;;;2.17;;
23750;SDS011;12055;52.098;13.176;2022-07-29T03:37:43;4.47;;;2.40;;
23750;SDS011;12055;52.098;13.176;2022-07-29T03:40:09;5.60;;;2.47;;
23750;SDS011;12055;52.098;13.176;2022-07-29T03:42:39;3.58;;;2.28;;
23750;SDS011;12055;52.098;13.176;2022-07-29T03:45:07;7.22;;;2.20;;
23750;SDS011;12055;52.098;13.176;2022-07-29T03:47:45;3.97;;;2.17;;
23750;SDS011;12055;52.098;13.176;2022-07-29T03:50:15;3.88;;;2.50;;
23750;SDS011;12055;52.098;13.176;2022-07-29T03:52:42;4.78;;;2.30;;
23750;SDS011;12055;52.098;13.176;2022-07-29T03:55:08;5.28;;;2.38;;
23750;SDS011;12055;52.098;13.176;2022-07-29T03:57:34;4.60;;;2.67;;
23750;SDS011;12055;52.098;13.176;2022-07-29T04:00:00;6.13;;;2.72;;
23750;SDS011;12055;52.098;13.176;2022-07-29T04:02:28;4.28;;;2.40;;
23750;SDS011;12055;52.098;13.176;2022-07-29T04:04:54;3.58;;;2.45;;
23750;SDS011;12055;52.098;13.176;2022-07-29T04:07:19;5.22;;;2.33;;
23750;SDS011;12055;52.098;13.176;2022-07-29T04:09:45;3.92;;;2.15;;
23750;SDS011;12055;52.098;13.176;2022-07-29T04:12:11;3.22;;;2.75;;
23750;SDS011;12055;52.098;13.176;2022-07-29T04:14:36;4.53;;;2.35;;
23750;SDS011;12055;52.098;13.176;2022-07-29T04:17:02;6.68;;;2.70;;
23750;SDS011;12055;52.098;13.176;2022-07-29T04:19:29;5.50;;;2.90;;
23750;SDS011;12055;52.098;13.176;2022-07-29T04:21:55;4.70;;;2.97;;
23750;SDS011;12055;52.098;13.176;2022-07-29T04:24:21;4.35;;;2.90;;
23750;SDS011;12055;52.098;13.176;2022-07-29T04:26:46;3.90;;;2.75;;
23750;SDS011;12055;52.098;13.176;2022-07-29T04:29:12;4.93;;;2.65;;
23750;SDS011;12055;52.098;13.176;2022-07-29T04:31:39;7.35;;;3.05;;
23750;SDS011;12055;52.098;13.176;2022-07-29T04:34:05;6.13;;;2.70;;
23750;SDS011;12055;52.098;13.176;2022-07-29T04:36:31;6.65;;;3.33;;
23750;SDS011;12055;52.098;13.176;2022-07-29T04:38:56;4.25;;;2.58;;
23750;SDS011;12055;52.098;13.176;2022-07-29T04:41:22;8.15;;;2.72;;
23750;SDS011;12055;52.098;13.176;2022-07-29T04:43:48;3.88;;;2.22;;
23750;SDS011;12055;52.098;13.176;2022-07-29T04:46:13;4.13;;;2.33;;
23750;SDS011;12055;52.098;13.176;2022-07-29T04:48:39;4.85;;;2.83;;
23750;SDS011;12055;52.098;13.176;2022-07-29T04:51:04;5.45;;;2.95;;
23750;SDS011;12055;52.098;13.176;2022-07-29T04:53:30;5.13;;;3.45;;
23750;SDS011;12055;52.098;13.176;2022-07-29T04:55:55;6.47;;;3.15;;
23750;SDS011;12055;52.098;13.176;2022-07-29T04:58:20;4.55;;;2.97;;
23750;SDS011;12055;52.098;13.176;2022-07-29T05:00:48;6.78;;;3.60;;
23750;SDS011;12055;52.098;13.176;2022-07-29T05:03:14;5.95;;;3.05;;
23750;SDS011;12055;52.098;13.176;2022-07-29T05:05:39;3.72;;;2.75;;
23750;SDS011;12055;52.098;13.176;2022-07-29T05:08:05;4.32;;;2.95;;
23750;SDS011;12055;52.098;13.176;2022-07-29T05:10:31;4.57;;;2.95;;
23750;SDS011;12055;52.098;13.176;2022-07-29T05:12:57;4.38;;;2.90;;
23750;SDS011;12055;52.098;13.176;2022-07-29T05:15:22;5.13;;;2.92;;
23750;SDS011;12055;52.098;13.176;2022-07-29T05:17:48;7.22;;;3.47;;
23750;SDS011;12055;52.098;13.176;2022-07-29T05:20:13;6.85;;;3.20;;
23750;SDS011;12055;52.098;13.176;2022-07-29T05:22:39;4.47;;;2.58;;
23750;SDS011;12055;52.098;13.176;2022-07-29T05:25:05;5.43;;;2.60;;
23750;SDS011;12055;52.098;13.176;2022-07-29T05:27:31;6.22;;;3.10;;
23750;SDS011;12055;52.098;13.176;2022-07-29T05:29:56;5.70;;;2.90;;
23750;SDS011;12055;52.098;13.176;2022-07-29T05:32:22;7.65;;;3.20;;
23750;SDS011;12055;52.098;13.176;2022-07-29T05:34:47;8.27;;;2.90;;
23750;SDS011;12055;52.098;13.176;2022-07-29T05:37:12;9.13;;;3.45;;
23750;SDS011;12055;52.098;13.176;2022-07-29T05:39:38;7.82;;;3.50;;
23750;SDS011;12055;52.098;13.176;2022-07-29T05:42:08;7.57;;;3.53;;
23750;SDS011;12055;52.098;13.176;2022-07-29T05:44:38;8.43;;;3.78;;
23750;SDS011;12055;52.098;13.176;2022-07-29T05:47:04;6.72;;;2.70;;
23750;SDS011;12055;52.098;13.176;2022-07-29T05:49:31;9.00;;;7.15;;
23750;SDS011;12055;52.098;13.176;2022-07-29T05:51:57;7.47;;;5.78;;
23750;SDS011;12055;52.098;13.176;2022-07-29T05:54:23;5.65;;;2.83;;
23750;SDS011;12055;52.098;13.176;2022-07-29T05:56:48;5.38;;;3.15;;
23750;SDS011;12055;52.098;13.176;2022-07-29T05:59:14;5.15;;;3.13;;
23750;SDS011;12055;52.098;13.176;2022-07-29T06:01:39;8.07;;;3.90;;
23750;SDS011;12055;52.098;13.176;2022-07-29T06:04:06;8.63;;;3.28;;
23750;SDS011;12055;52.098;13.176;2022-07-29T06:06:32;6.30;;;2.67;;
23750;SDS011;12055;52.098;13.176;2022-07-29T06:08:58;4.72;;;2.88;;
23750;SDS011;12055;52.098;13.176;2022-07-29T06:11:24;8.00;;;3.13;;
23750;SDS011;12055;52.098;13.176;2022-07-29T06:13:49;7.43;;;3.28;;
23750;SDS011;12055;52.098;13.176;2022-07-29T06:16:15;9.05;;;3.05;;
23750;SDS011;12055;52.098;13.176;2022-07-29T06:18:41;7.45;;;2.58;;
23750;SDS011;12055;52.098;13.176;2022-07-29T06:21:07;7.85;;;2.90;;
23750;SDS011;12055;52.098;13.176;2022-07-29T06:23:34;6.63;;;3.20;;
23750;SDS011;12055;52.098;13.176;2022-07-29T06:26:00;5.32;;;3.15;;
23750;SDS011;12055;52.098;13.176;2022-07-29T06:28:26;12.88;;;2.80;;
23750;SDS011;12055;52.098;13.176;2022-07-29T06:30:51;4.68;;;2.67;;
23750;SDS011;12055;52.098;13.176;2022-07-29T06:33:17;6.25;;;2.60;;
23750;SDS011;12055;52.098;13.176;2022-07-29T06:35:43;3.97;;;2.30;;
23750;SDS011;12055;52.098;13.176;2022-07-29T06:38:10;5.45;;;2.67;;
23750;SDS011;12055;52.098;13.176;2022-07-29T06:40:36;4.72;;;2.78;;
23750;SDS011;12055;52.098;13.176;2022-07-29T06:43:20;5.22;;;2.70;;
23750;SDS011;12055;52.098;13.176;2022-07-29T06:45:45;7.60;;;2.80;;
23750;SDS011;12055;52.098;13.176;2022-07-29T06:48:11;5.60;;;2.42;;
23750;SDS011;12055;52.098;13.176;2022-07-29T06:50:36;3.63;;;2.45;;
23750;SDS011;12055;52.098;13.176;2022-07-29T06:53:03;10.98;;;2.80;;
23750;SDS011;12055;52.098;13.176;2022-07-29T06:55:28;3.97;;;2.40;;
23750;SDS011;12055;52.098;13.176;2022-07-29T06:57:54;6.13;;;3.22;;
23750;SDS011;12055;52.098;13.176;2022-07-29T07:00:19;6.90;;;2.80;;
23750;SDS011;12055;52.098;13.176;2022-07-29T07:02:45;5.78;;;2.85;;
23750;SDS011;12055;52.098;13.176;2022-07-29T07:05:10;5.38;;;2.45;;
23750;SDS011;12055;52.098;13.176;2022-07-29T07:07:36;6.43;;;3.28;;
23750;SDS011;12055;52.098;13.176;2022-07-29T07:10:01;6.82;;;2.38;;
23750;SDS011;12055;52.098;13.176;2022-07-29T07:12:27;4.15;;;2.90;;
23750;SDS011;12055;52.098;13.176;2022-07-29T07:14:52;7.60;;;2.70;;
23750;SDS011;12055;52.098;13.176;2022-07-29T07:17:18;10.18;;;3.05;;
23750;SDS011;12055;52.098;13.176;2022-07-29T07:19:43;10.38;;;2.65;;
23750;SDS011;12055;52.098;13.176;2022-07-29T07:22:10;5.50;;;2.83;;
23750;SDS011;12055;52.098;13.176;2022-07-29T07:24:35;4.93;;;2.65;;
23750;SDS011;12055;52.098;13.176;2022-07-29T07:27:01;5.25;;;2.58;;
23750;SDS011;12055;52.098;13.176;2022-07-29T07:29:26;5.60;;;2.80;;
23750;SDS011;12055;52.098;13.176;2022-07-29T07:31:58;5.28;;;2.67;;
23750;SDS011;12055;52.098;13.176;2022-07-29T07:34:27;7.38;;;2.67;;
23750;SDS011;12055;52.098;13.176;2022-07-29T07:36:52;2.45;;;2.05;;
23750;SDS011;12055;52.098;13.176;2022-07-29T07:39:18;5.82;;;2.58;;
23750;SDS011;12055;52.098;13.176;2022-07-29T07:41:43;5.30;;;2.60;;
23750;SDS011;12055;52.098;13.176;2022-07-29T07:44:08;3.63;;;2.38;;
23750;SDS011;12055;52.098;13.176;2022-07-29T07:46:34;3.25;;;2.58;;
23750;SDS011;12055;52.098;13.176;2022-07-29T07:48:59;13.02;;;3.83;;
23750;SDS011;12055;52.098;13.176;2022-07-29T07:51:25;6.10;;;2.75;;
23750;SDS011;12055;52.098;13.176;2022-07-29T07:53:50;4.05;;;2.25;;
23750;SDS011;12055;52.098;13.176;2022-07-29T07:56:16;3.30;;;2.30;;
23750;SDS011;12055;52.098;13.176;2022-07-29T07:58:41;3.42;;;2.40;;
23750;SDS011;12055;52.098;13.176;2022-07-29T08:01:07;6.20;;;2.88;;
23750;SDS011;12055;52.098;13.176;2022-07-29T08:03:33;4.07;;;1.85;;
23750;SDS011;12055;52.098;13.176;2022-07-29T08:05:59;4.47;;;2.10;;
23750;SDS011;12055;52.098;13.176;2022-07-29T08:08:25;6.65;;;2.53;;
23750;SDS011;12055;52.098;13.176;2022-07-29T08:10:51;3.47;;;2.20;;
23750;SDS011;12055;52.098;13.176;2022-07-29T08:13:24;2.80;;;2.05;;
23750;SDS011;12055;52.098;13.176;2022-07-29T08:15:53;4.47;;;2.80;;
23750;SDS011;12055;52.098;13.176;2022-07-29T08:18:36;4.07;;;2.35;;
23750;SDS011;12055;52.098;13.176;2022-07-29T08:21:02;4.15;;;2.38;;
23750;SDS011;12055;52.098;13.176;2022-07-29T08:23:28;5.22;;;2.13;;
23750;SDS011;12055;52.098;13.176;2022-07-29T08:26:03;7.05;;;2.65;;
23750;SDS011;12055;52.098;13.176;2022-07-29T08:28:29;7.47;;;2.50;;
23750;SDS011;12055;52.098;13.176;2022-07-29T08:30:54;3.55;;;2.00;;
23750;SDS011;12055;52.098;13.176;2022-07-29T08:33:20;3.97;;;2.25;;
23750;SDS011;12055;52.098;13.176;2022-07-29T08:35:45;3.10;;;2.03;;
23750;SDS011;12055;52.098;13.176;2022-07-29T08:38:11;2.83;;;1.88;;
23750;SDS011;12055;52.098;13.176;2022-07-29T08:40:36;6.10;;;2.17;;
23750;SDS011;12055;52.098;13.176;2022-07-29T08:43:05;7.55;;;2.33;;
23750;SDS011;12055;52.098;13.176;2022-07-29T08:45:42;4.82;;;2.05;;
23750;SDS011;12055;52.098;13.176;2022-07-29T08:48:11;6.78;;;2.22;;
23750;SDS011;12055;52.098;13.176;2022-07-29T08:50:37;7.00;;;2.33;;
23750;SDS011;12055;52.098;13.176;2022-07-29T08:53:04;6.38;;;2.20;;
23750;SDS011;12055;52.098;13.176;2022-07-29T08:55:32;4.82;;;2.05;;
23750;SDS011;12055;52.098;13.176;2022-07-29T08:57:58;3.05;;;2.15;;
23750;SDS011;12055;52.098;13.176;2022-07-29T09:00:24;3.38;;;2.17;;
23750;SDS011;12055;52.098;13.176;2022-07-29T09:02:51;3.25;;;1.92;;
23750;SDS011;12055;52.098;13.176;2022-07-29T09:05:22;4.57;;;1.92;;
23750;SDS011;12055;52.098;13.176;2022-07-29T09:07:49;4.75;;;2.30;;
23750;SDS011;12055;52.098;13.176;2022-07-29T09:10:15;3.90;;;1.98;;
23750;SDS011;12055;52.098;13.176;2022-07-29T09:12:40;4.68;;;2.17;;
23750;SDS011;12055;52.098;13.176;2022-07-29T09:15:06;3.80;;;2.22;;
23750;SDS011;12055;52.098;13.176;2022-07-29T09:17:39;4.32;;;2.17;;
23750;SDS011;12055;52.098;13.176;2022-07-29T09:20:10;4.53;;;1.77;;
23750;SDS011;12055;52.098;13.176;2022-07-29T09:22:37;7.35;;;2.22;;
23750;SDS011;12055;52.098;13.176;2022-07-29T09:25:03;2.70;;;2.15;;
23750;SDS011;12055;52.098;13.176;2022-07-29T09:27:28;6.80;;;1.60;;
23750;SDS011;12055;52.098;13.176;2022-07-29T09:32:27;6.43;;;2.30;;
23750;SDS011;12055;52.098;13.176;2022-07-29T09:35:13;5.85;;;2.30;;
23750;SDS011;12055;52.098;13.176;2022-07-29T09:37:43;3.15;;;1.88;;
23750;SDS011;12055;52.098;13.176;2022-07-29T09:40:13;7.45;;;1.90;;
23750;SDS011;12055;52.098;13.176;2022-07-29T09:42:40;7.43;;;2.30;;
23750;SDS011;12055;52.098;13.176;2022-07-29T09:45:06;3.08;;;1.73;;
23750;SDS011;12055;52.098;13.176;2022-07-29T09:47:42;3.90;;;2.55;;
23750;SDS011;12055;52.098;13.176;2022-07-29T09:50:13;6.25;;;2.10;;
23750;SDS011;12055;52.098;13.176;2022-07-29T09:52:47;2.85;;;1.85;;
23750;SDS011;12055;52.098;13.176;2022-07-29T09:55:14;2.40;;;1.75;;
23750;SDS011;12055;52.098;13.176;2022-07-29T09:57:40;6.10;;;2.25;;
23750;SDS011;12055;52.098;13.176;2022-07-29T10:00:07;2.47;;;1.83;;
23750;SDS011;12055;52.098;13.176;2022-07-29T10:02:34;3.22;;;1.75;;
23750;SDS011;12055;52.098;13.176;2022-07-29T10:05:03;3.15;;;1.88;;
23750;SDS011;12055;52.098;13.176;2022-07-29T10:07:53;3.58;;;2.00;;
23750;SDS011;12055;52.098;13.176;2022-07-29T10:10:27;3.80;;;2.03;;
23750;SDS011;12055;52.098;13.176;2022-07-29T10:12:59;2.45;;;1.88;;
23750;SDS011;12055;52.098;13.176;2022-07-29T10:15:27;12.90;;;2.38;;
23750;SDS011;12055;52.098;13.176;2022-07-29T10:17:55;3.78;;;2.00;;
23750;SDS011;12055;52.098;13.176;2022-07-29T10:20:22;3.35;;;1.90;;
23750;SDS011;12055;52.098;13.176;2022-07-29T10:22:48;4.47;;;2.03;;
23750;SDS011;12055;52.098;13.176;2022-07-29T10:25:15;6.75;;;2.00;;
23750;SDS011;12055;52.098;13.176;2022-07-29T10:27:41;5.32;;;2.60;;
23750;SDS011;12055;52.098;13.176;2022-07-29T10:30:08;5.82;;;2.20;;
23750;SDS011;12055;52.098;13.176;2022-07-29T10:35:44;5.00;;;2.10;;
23750;SDS011;12055;52.098;13.176;2022-07-29T10:41:19;6.40;;;2.38;;
23750;SDS011;12055;52.098;13.176;2022-07-29T10:46:42;2.50;;;2.30;;
23750;SDS011;12055;52.098;13.176;2022-07-29T10:49:18;2.85;;;2.28;;
23750;SDS011;12055;52.098;13.176;2022-07-29T10:59:37;4.45;;;2.65;;
23750;SDS011;12055;52.098;13.176;2022-07-29T11:02:02;4.65;;;2.60;;
23750;SDS011;12055;52.098;13.176;2022-07-29T11:07:22;4.43;;;2.60;;
23750;SDS011;12055;52.098;13.176;2022-07-29T11:15:08;15.60;;;3.22;;
23750;SDS011;12055;52.098;13.176;2022-07-29T11:18:07;3.22;;;2.22;;
23750;SDS011;12055;52.098;13.176;2022-07-29T11:23:18;5.90;;;2.72;;
23750;SDS011;12055;52.098;13.176;2022-07-29T11:25:44;4.75;;;2.40;;
23750;SDS011;12055;52.098;13.176;2022-07-29T11:28:13;3.47;;;2.25;;
23750;SDS011;12055;52.098;13.176;2022-07-29T11:30:49;3.78;;;2.40;;
23750;SDS011;12055;52.098;13.176;2022-07-29T11:33:29;7.97;;;2.47;;
23750;SDS011;12055;52.098;13.176;2022-07-29T11:36:11;3.10;;;2.40;;
23750;SDS011;12055;52.098;13.176;2022-07-29T11:38:38;4.00;;;2.50;;
23750;SDS011;12055;52.098;13.176;2022-07-29T11:43:50;4.10;;;2.25;;
23750;SDS011;12055;52.098;13.176;2022-07-29T11:46:21;4.28;;;2.22;;
23750;SDS011;12055;52.098;13.176;2022-07-29T11:49:08;5.30;;;2.40;;
23750;SDS011;12055;52.098;13.176;2022-07-29T11:51:35;8.95;;;3.17;;
23750;SDS011;12055;52.098;13.176;2022-07-29T11:54:01;3.33;;;2.17;;
23750;SDS011;12055;52.098;13.176;2022-07-29T11:56:29;2.78;;;2.28;;
23750;SDS011;12055;52.098;13.176;2022-07-29T11:59:06;6.30;;;2.03;;
23750;SDS011;12055;52.098;13.176;2022-07-29T12:01:34;5.43;;;2.47;;
23750;SDS011;12055;52.098;13.176;2022-07-29T12:04:06;5.38;;;2.40;;
23750;SDS011;12055;52.098;13.176;2022-07-29T12:06:35;8.23;;;2.30;;
23750;SDS011;12055;52.098;13.176;2022-07-29T12:09:05;4.22;;;2.28;;
23750;SDS011;12055;52.098;13.176;2022-07-29T12:11:32;5.43;;;2.20;;
23750;SDS011;12055;52.098;13.176;2022-07-29T12:13:57;3.88;;;2.28;;
23750;SDS011;12055;52.098;13.176;2022-07-29T12:16:23;2.65;;;2.13;;
23750;SDS011;12055;52.098;13.176;2022-07-29T12:19:02;5.57;;;2.28;;
23750;SDS011;12055;52.098;13.176;2022-07-29T12:21:29;4.15;;;2.80;;
23750;SDS011;12055;52.098;13.176;2022-07-29T12:24:08;7.13;;;2.25;;
23750;SDS011;12055;52.098;13.176;2022-07-29T12:26:33;3.80;;;2.55;;
23750;SDS011;12055;52.098;13.176;2022-07-29T12:28:59;6.72;;;2.63;;
23750;SDS011;12055;52.098;13.176;2022-07-29T12:31:24;3.25;;;2.67;;
23750;SDS011;12055;52.098;13.176;2022-07-29T12:33:53;5.15;;;2.67;;
23750;SDS011;12055;52.098;13.176;2022-07-29T12:36:19;2.45;;;2.25;;
23750;SDS011;12055;52.098;13.176;2022-07-29T12:38:44;4.13;;;2.55;;
23750;SDS011;12055;52.098;13.176;2022-07-29T12:41:10;2.75;;;2.25;;
23750;SDS011;12055;52.098;13.176;2022-07-29T12:43:37;4.05;;;2.67;;
23750;SDS011;12055;52.098;13.176;2022-07-29T12:46:13;6.32;;;2.88;;
23750;SDS011;12055;52.098;13.176;2022-07-29T12:48:40;5.43;;;2.50;;
23750;SDS011;12055;52.098;13.176;2022-07-29T12:51:07;4.57;;;2.63;;
23750;SDS011;12055;52.098;13.176;2022-07-29T12:53:35;4.20;;;2.38;;
23750;SDS011;12055;52.098;13.176;2022-07-29T12:56:01;5.97;;;2.63;;
23750;SDS011;12055;52.098;13.176;2022-07-29T12:58:35;4.88;;;2.10;;
23750;SDS011;12055;52.098;13.176;2022-07-29T13:01:17;3.83;;;2.47;;
23750;SDS011;12055;52.098;13.176;2022-07-29T13:03:51;5.82;;;2.92;;
23750;SDS011;12055;52.098;13.176;2022-07-29T13:06:41;3.60;;;2.35;;
23750;SDS011;12055;52.098;13.176;2022-07-29T13:09:10;6.47;;;2.30;;
23750;SDS011;12055;52.098;13.176;2022-07-29T13:11:40;4.38;;;2.50;;
23750;SDS011;12055;52.098;13.176;2022-07-29T13:14:29;6.82;;;2.45;;
23750;SDS011;12055;52.098;13.176;2022-07-29T13:19:32;4.60;;;2.88;;
23750;SDS011;12055;52.098;13.176;2022-07-29T13:22:01;2.88;;;2.22;;
23750;SDS011;12055;52.098;13.176;2022-07-29T13:24:26;3.88;;;2.40;;
23750;SDS011;12055;52.098;13.176;2022-07-29T13:26:52;5.13;;;2.65;;
23750;SDS011;12055;52.098;13.176;2022-07-29T13:29:17;7.20;;;2.03;;
23750;SDS011;12055;52.098;13.176;2022-07-29T13:31:43;5.25;;;3.10;;
23750;SDS011;12055;52.098;13.176;2022-07-29T13:34:09;3.47;;;2.53;;
23750;SDS011;12055;52.098;13.176;2022-07-29T13:36:34;2.13;;;2.03;;
23750;SDS011;12055;52.098;13.176;2022-07-29T13:38:59;6.93;;;2.13;;
23750;SDS011;12055;52.098;13.176;2022-07-29T13:41:27;3.75;;;2.17;;
23750;SDS011;12055;52.098;13.176;2022-07-29T13:43:53;4.45;;;2.22;;
23750;SDS011;12055;52.098;13.176;2022-07-29T13:46:18;4.20;;;2.45;;
23750;SDS011;12055;52.098;13.176;2022-07-29T13:48:44;5.38;;;2.50;;
23750;SDS011;12055;52.098;13.176;2022-07-29T13:51:09;4.80;;;2.42;;
23750;SDS011;12055;52.098;13.176;2022-07-29T13:53:35;3.30;;;2.22;;
23750;SDS011;12055;52.098;13.176;2022-07-29T13:56:00;3.53;;;2.25;;
23750;SDS011;12055;52.098;13.176;2022-07-29T13:58:26;9.18;;;2.15;;
23750;SDS011;12055;52.098;13.176;2022-07-29T14:00:51;3.70;;;2.30;;
23750;SDS011;12055;52.098;13.176;2022-07-29T14:03:18;4.22;;;2.50;;
23750;SDS011;12055;52.098;13.176;2022-07-29T14:05:44;3.20;;;2.53;;
23750;SDS011;12055;52.098;13.176;2022-07-29T14:08:10;5.25;;;2.72;;
23750;SDS011;12055;52.098;13.176;2022-07-29T14:10:35;2.80;;;1.90;;
23750;SDS011;12055;52.098;13.176;2022-07-29T14:13:01;4.35;;;2.33;;
23750;SDS011;12055;52.098;13.176;2022-07-29T14:15:26;4.25;;;2.72;;
23750;SDS011;12055;52.098;13.176;2022-07-29T14:17:52;2.85;;;2.45;;
23750;SDS011;12055;52.098;13.176;2022-07-29T14:20:18;14.10;;;2.53;;
23750;SDS011;12055;52.098;13.176;2022-07-29T14:22:44;6.22;;;2.60;;
23750;SDS011;12055;52.098;13.176;2022-07-29T14:25:09;5.68;;;2.40;;
23750;SDS011;12055;52.098;13.176;2022-07-29T14:27:34;2.65;;;2.00;;
23750;SDS011;12055;52.098;13.176;2022-07-29T14:30:00;3.50;;;2.00;;
23750;SDS011;12055;52.098;13.176;2022-07-29T14:32:25;3.78;;;2.30;;
23750;SDS011;12055;52.098;13.176;2022-07-29T14:34:51;2.40;;;2.20;;
23750;SDS011;12055;52.098;13.176;2022-07-29T14:37:16;2.28;;;2.00;;
23750;SDS011;12055;52.098;13.176;2022-07-29T14:39:43;2.85;;;2.20;;
23750;SDS011;12055;52.098;13.176;2022-07-29T14:42:09;3.80;;;2.33;;
23750;SDS011;12055;52.098;13.176;2022-07-29T14:44:35;2.55;;;2.20;;
23750;SDS011;12055;52.098;13.176;2022-07-29T14:47:01;2.60;;;2.00;;
23750;SDS011;12055;52.098;13.176;2022-07-29T14:49:26;3.65;;;2.25;;
23750;SDS011;12055;52.098;13.176;2022-07-29T14:51:52;4.18;;;2.25;;
23750;SDS011;12055;52.098;13.176;2022-07-29T14:54:18;4.43;;;2.70;;
23750;SDS011;12055;52.098;13.176;2022-07-29T14:56:43;3.83;;;2.28;;
23750;SDS011;12055;52.098;13.176;2022-07-29T14:59:08;7.50;;;2.65;;
23750;SDS011;12055;52.098;13.176;2022-07-29T15:01:34;3.85;;;2.33;;
23750;SDS011;12055;52.098;13.176;2022-07-29T15:03:59;2.70;;;2.22;;
23750;SDS011;12055;52.098;13.176;2022-07-29T15:06:25;2.90;;;2.35;;
23750;SDS011;12055;52.098;13.176;2022-07-29T15:08:51;4.90;;;2.60;;
23750;SDS011;12055;52.098;13.176;2022-07-29T15:11:17;5.45;;;2.33;;
23750;SDS011;12055;52.098;13.176;2022-07-29T15:13:42;4.53;;;2.40;;
23750;SDS011;12055;52.098;13.176;2022-07-29T15:16:08;3.40;;;2.45;;
23750;SDS011;12055;52.098;13.176;2022-07-29T15:18:34;3.75;;;2.20;;
23750;SDS011;12055;52.098;13.176;2022-07-29T15:20:59;3.92;;;2.17;;